sensor_id;sensor_type;location;lat;lon;timestamp;pressure;altitude;pressure_sealevel;temperature;humidity
62708;BME280;48769;51.624;5.886;2023-02-03T00:00:35;102319.03;;;8.54;100.00
62708;BME280;48769;51.624;5.886;2023-02-03T00:03:00;102320.69;;;8.60;100.00
62708;BME280;48769;51.624;5.886;2023-02-03T00:05:25;102312.00;;;8.56;100.00
62708;BME280;48769;51.624;5.886;2023-02-03T00:07:51;102316.41;;;8.54;100.00
62708;BME280;48769;51.624;5.886;2023-02-03T00:10:17;102322.59;;;8.53;100.00
62708;BME280;48769;51.624;5.886;2023-02-03T00:12:46;102313.66;;;8.60;100.00
62708;BME280;48769;51.624;5.886;2023-02-03T00:15:11;102302.38;;;8.55;100.00
62708;BME280;48769;51.624;5.886;2023-02-03T00:17:36;102304.03;;;8.58;100.00
62708;BME280;48769;51.624;5.886;2023-02-03T00:20:01;102296.06;;;8.62;100.00
62708;BME280;48769;51.624;5.886;2023-02-03T00:22:26;102313.66;;;8.60;100.00
62708;BME280;48769;51.624;5.886;2023-02-03T00:24:52;102327.00;;;8.51;100.00
62708;BME280;48769;51.624;5.886;2023-02-03T00:27:17;102326.06;;;8.55;100.00
62708;BME280;48769;51.624;5.886;2023-02-03T00:29:42;102315.53;;;8.55;100.00
62708;BME280;48769;51.624;5.886;2023-02-03T00:32:07;102320.75;;;8.58;100.00
62708;BME280;48769;51.624;5.886;2023-02-03T00:34:32;102321.56;;;8.60;100.00
62708;BME280;48769;51.624;5.886;2023-02-03T00:36:58;102333.06;;;8.56;100.00
62708;BME280;48769;51.624;5.886;2023-02-03T00:39:23;102323.34;;;8.60;100.00
62708;BME280;48769;51.624;5.886;2023-02-03T00:41:48;102340.00;;;8.60;100.00
62708;BME280;48769;51.624;5.886;2023-02-03T00:44:13;102339.19;;;8.57;100.00
62708;BME280;48769;51.624;5.886;2023-02-03T00:46:39;102342.63;;;8.62;100.00
62708;BME280;48769;51.624;5.886;2023-02-03T00:49:04;102346.06;;;8.65;100.00
62708;BME280;48769;51.624;5.886;2023-02-03T00:51:30;102346.06;;;8.64;100.00
62708;BME280;48769;51.624;5.886;2023-02-03T00:53:55;102341.88;;;8.55;100.00
62708;BME280;48769;51.624;5.886;2023-02-03T00:56:20;102347.03;;;8.60;100.00
62708;BME280;48769;51.624;5.886;2023-02-03T00:58:45;102349.84;;;8.52;100.00
62708;BME280;48769;51.624;5.886;2023-02-03T01:01:11;102338.34;;;8.56;100.00
62708;BME280;48769;51.624;5.886;2023-02-03T01:03:36;102344.56;;;8.51;100.00
62708;BME280;48769;51.624;5.886;2023-02-03T01:06:08;102346.19;;;8.58;100.00
62708;BME280;48769;51.624;5.886;2023-02-03T01:08:34;102359.34;;;8.59;100.00
62708;BME280;48769;51.624;5.886;2023-02-03T01:11:04;102356.69;;;8.61;100.00
62708;BME280;48769;51.624;5.886;2023-02-03T01:13:29;102363.78;;;8.57;100.00
62708;BME280;48769;51.624;5.886;2023-02-03T01:15:54;102354.88;;;8.64;100.00
62708;BME280;48769;51.624;5.886;2023-02-03T01:18:19;102359.28;;;8.62;100.00
62708;BME280;48769;51.624;5.886;2023-02-03T01:20:45;102358.44;;;8.60;100.00
62708;BME280;48769;51.624;5.886;2023-02-03T01:23:10;102355.94;;;8.54;100.00
62708;BME280;48769;51.624;5.886;2023-02-03T01:25:35;102345.28;;;8.60;100.00
62708;BME280;48769;51.624;5.886;2023-02-03T01:28:00;102347.03;;;8.60;100.00
62708;BME280;48769;51.624;5.886;2023-02-03T01:30:26;102343.53;;;8.59;100.00
62708;BME280;48769;51.624;5.886;2023-02-03T01:32:51;102333.75;;;8.66;100.00
62708;BME280;48769;51.624;5.886;2023-02-03T01:35:16;102330.25;;;8.65;100.00
62708;BME280;48769;51.624;5.886;2023-02-03T01:37:41;102343.38;;;8.69;100.00
62708;BME280;48769;51.624;5.886;2023-02-03T01:40:07;102345.22;;;8.63;100.00
62708;BME280;48769;51.624;5.886;2023-02-03T01:42:32;102347.91;;;8.60;100.00
62708;BME280;48769;51.624;5.886;2023-02-03T01:44:57;102354.13;;;8.56;100.00
62708;BME280;48769;51.624;5.886;2023-02-03T01:47:27;102347.91;;;8.60;100.00
62708;BME280;48769;51.624;5.886;2023-02-03T01:50:13;102344.34;;;8.63;100.00
62708;BME280;48769;51.624;5.886;2023-02-03T01:52:40;102333.81;;;8.64;100.00
62708;BME280;48769;51.624;5.886;2023-02-03T01:55:08;102339.88;;;8.66;100.00
62708;BME280;48769;51.624;5.886;2023-02-03T01:57:40;102324.94;;;8.69;100.00
62708;BME280;48769;51.624;5.886;2023-02-03T02:00:08;102328.44;;;8.68;100.00
62708;BME280;48769;51.624;5.886;2023-02-03T02:02:33;102320.53;;;8.68;100.00
62708;BME280;48769;51.624;5.886;2023-02-03T02:05:06;102311.81;;;8.65;100.00
62708;BME280;48769;51.624;5.886;2023-02-03T02:07:33;102298.72;;;8.61;100.00
62708;BME280;48769;51.624;5.886;2023-02-03T02:10:00;102287.19;;;8.66;100.00
62708;BME280;48769;51.624;5.886;2023-02-03T02:12:25;102283.81;;;8.61;100.00
62708;BME280;48769;51.624;5.886;2023-02-03T02:14:50;102296.97;;;8.61;100.00
62708;BME280;48769;51.624;5.886;2023-02-03T02:18:05;102297.78;;;8.63;100.00
62708;BME280;48769;51.624;5.886;2023-02-03T02:20:23;102303.91;;;8.65;100.00
62708;BME280;48769;51.624;5.886;2023-02-03T02:27:53;102297.84;;;8.60;100.00
62708;BME280;48769;51.624;5.886;2023-02-03T02:38:23;102291.59;;;8.66;100.00
62708;BME280;48769;51.624;5.886;2023-02-03T02:48:23;102290.81;;;8.62;100.00
62708;BME280;48769;51.624;5.886;2023-02-03T02:50:51;102281.13;;;8.63;100.00
62708;BME280;48769;51.624;5.886;2023-02-03T02:53:17;102287.13;;;8.70;100.00
62708;BME280;48769;51.624;5.886;2023-02-03T02:55:44;102288.94;;;8.68;100.00
62708;BME280;48769;51.624;5.886;2023-02-03T02:58:10;102281.06;;;8.66;100.00
62708;BME280;48769;51.624;5.886;2023-02-03T03:00:37;102295.09;;;8.68;100.00
62708;BME280;48769;51.624;5.886;2023-02-03T03:03:11;102303.75;;;8.73;100.00
62708;BME280;48769;51.624;5.886;2023-02-03T03:05:37;102297.69;;;8.70;100.00
62708;BME280;48769;51.624;5.886;2023-02-03T03:08:03;102303.84;;;8.69;100.00
62708;BME280;48769;51.624;5.886;2023-02-03T03:10:29;102302.03;;;8.72;100.00
62708;BME280;48769;51.624;5.886;2023-02-03T03:12:56;102309.06;;;8.70;100.00
62708;BME280;48769;51.624;5.886;2023-02-03T03:15:24;102296.91;;;8.64;100.00
62708;BME280;48769;51.624;5.886;2023-02-03T03:17:58;102293.25;;;8.72;100.00
62708;BME280;48769;51.624;5.886;2023-02-03T03:20:25;102282.66;;;8.75;100.00
62708;BME280;48769;51.624;5.886;2023-02-03T03:23:13;102258.03;;;8.76;100.00
62708;BME280;48769;51.624;5.886;2023-02-03T03:25:45;102260.66;;;8.76;100.00
62708;BME280;48769;51.624;5.886;2023-02-03T03:28:12;102256.31;;;8.73;100.00
62708;BME280;48769;51.624;5.886;2023-02-03T03:30:39;102247.44;;;8.77;100.00
62708;BME280;48769;51.624;5.886;2023-02-03T03:33:04;102241.38;;;8.75;100.00
62708;BME280;48769;51.624;5.886;2023-02-03T03:35:35;102246.66;;;8.74;100.00
62708;BME280;48769;51.624;5.886;2023-02-03T03:38:16;102247.53;;;8.74;100.00
62708;BME280;48769;51.624;5.886;2023-02-03T03:40:46;102257.13;;;8.77;100.00
62708;BME280;48769;51.624;5.886;2023-02-03T03:43:16;102245.72;;;8.76;100.00
62708;BME280;48769;51.624;5.886;2023-02-03T03:45:48;102257.13;;;8.77;100.00
62708;BME280;48769;51.624;5.886;2023-02-03T03:51:02;102288.78;;;8.75;100.00
62708;BME280;48769;51.624;5.886;2023-02-03T03:53:29;102279.00;;;8.82;100.00
62708;BME280;48769;51.624;5.886;2023-02-03T03:55:56;102273.59;;;8.86;100.00
62708;BME280;48769;51.624;5.886;2023-02-03T03:58:24;102272.94;;;8.77;100.00
62708;BME280;48769;51.624;5.886;2023-02-03T04:00:50;102282.59;;;8.78;100.00
62708;BME280;48769;51.624;5.886;2023-02-03T04:03:21;102288.69;;;8.80;100.00
62708;BME280;48769;51.624;5.886;2023-02-03T04:05:47;102276.28;;;8.85;100.00
62708;BME280;48769;51.624;5.886;2023-02-03T04:08:12;102269.41;;;8.78;100.00
62708;BME280;48769;51.624;5.886;2023-02-03T04:10:38;102288.63;;;8.83;100.00
62708;BME280;48769;51.624;5.886;2023-02-03T04:13:04;102292.09;;;8.85;100.00
62708;BME280;48769;51.624;5.886;2023-02-03T04:15:30;102290.28;;;8.87;100.00
62708;BME280;48769;51.624;5.886;2023-02-03T04:17:55;102294.63;;;8.89;100.00
62708;BME280;48769;51.624;5.886;2023-02-03T04:20:21;102304.38;;;8.86;100.00
62708;BME280;48769;51.624;5.886;2023-02-03T04:22:46;102318.44;;;8.85;100.00
62708;BME280;48769;51.624;5.886;2023-02-03T04:25:11;102298.13;;;8.90;100.00
62708;BME280;48769;51.624;5.886;2023-02-03T04:27:39;102289.34;;;8.91;100.00
62708;BME280;48769;51.624;5.886;2023-02-03T04:30:05;102289.28;;;8.94;100.00
62708;BME280;48769;51.624;5.886;2023-02-03T04:32:30;102291.97;;;8.91;100.00
62708;BME280;48769;51.624;5.886;2023-02-03T04:34:56;102299.84;;;8.93;100.00
62708;BME280;48769;51.624;5.886;2023-02-03T04:37:21;102293.75;;;8.89;100.00
62708;BME280;48769;51.624;5.886;2023-02-03T04:39:47;102298.09;;;8.92;100.00
62708;BME280;48769;51.624;5.886;2023-02-03T04:42:13;102295.50;;;8.90;100.00
62708;BME280;48769;51.624;5.886;2023-02-03T04:44:39;102303.56;;;8.82;100.00
62708;BME280;48769;51.624;5.886;2023-02-03T04:47:04;102307.84;;;8.88;100.00
62708;BME280;48769;51.624;5.886;2023-02-03T04:49:29;102284.16;;;8.86;100.00
62708;BME280;48769;51.624;5.886;2023-02-03T04:51:54;102277.03;;;8.90;100.00
62708;BME280;48769;51.624;5.886;2023-02-03T04:54:19;102277.94;;;8.89;100.00
62708;BME280;48769;51.624;5.886;2023-02-03T04:56:45;102265.56;;;8.94;100.00
62708;BME280;48769;51.624;5.886;2023-02-03T04:59:10;102253.31;;;8.90;100.00
62708;BME280;48769;51.624;5.886;2023-02-03T05:01:35;102252.44;;;8.91;100.00
62708;BME280;48769;51.624;5.886;2023-02-03T05:04:00;102247.09;;;8.94;100.00
62708;BME280;48769;51.624;5.886;2023-02-03T05:06:26;102251.59;;;8.91;100.00
62708;BME280;48769;51.624;5.886;2023-02-03T05:08:52;102253.38;;;8.87;100.00
62708;BME280;48769;51.624;5.886;2023-02-03T05:11:18;102250.66;;;8.92;100.00
62708;BME280;48769;51.624;5.886;2023-02-03T05:13:44;102258.66;;;8.87;100.00
62708;BME280;48769;51.624;5.886;2023-02-03T05:16:09;102262.25;;;8.84;100.00
62708;BME280;48769;51.624;5.886;2023-02-03T05:18:34;102271.00;;;8.85;100.00
62708;BME280;48769;51.624;5.886;2023-02-03T05:20:59;102268.25;;;8.91;100.00
62708;BME280;48769;51.624;5.886;2023-02-03T05:23:25;102266.47;;;8.92;100.00
62708;BME280;48769;51.624;5.886;2023-02-03T05:25:50;102264.59;;;8.97;100.00
62708;BME280;48769;51.624;5.886;2023-02-03T05:28:15;102264.53;;;9.00;100.00
62708;BME280;48769;51.624;5.886;2023-02-03T05:30:40;102278.66;;;8.97;100.00
62708;BME280;48769;51.624;5.886;2023-02-03T05:33:06;102279.66;;;8.90;100.00
62708;BME280;48769;51.624;5.886;2023-02-03T05:35:31;102283.94;;;8.97;100.00
62708;BME280;48769;51.624;5.886;2023-02-03T05:37:56;102279.41;;;9.02;100.00
62708;BME280;48769;51.624;5.886;2023-02-03T05:40:23;102267.00;;;9.07;100.00
62708;BME280;48769;51.624;5.886;2023-02-03T05:43:07;102276.75;;;9.04;100.00
62708;BME280;48769;51.624;5.886;2023-02-03T05:45:32;102289.09;;;9.02;100.00
62708;BME280;48769;51.624;5.886;2023-02-03T05:47:57;102297.78;;;9.07;100.00
62708;BME280;48769;51.624;5.886;2023-02-03T05:50:22;102284.63;;;9.05;100.00
62708;BME280;48769;51.624;5.886;2023-02-03T05:52:48;102285.41;;;9.10;100.00
62708;BME280;48769;51.624;5.886;2023-02-03T05:55:13;102281.00;;;9.09;100.00
62708;BME280;48769;51.624;5.886;2023-02-03T05:57:39;102281.00;;;9.09;100.00
62708;BME280;48769;51.624;5.886;2023-02-03T06:00:04;102281.06;;;9.06;100.00
62708;BME280;48769;51.624;5.886;2023-02-03T06:02:31;102281.06;;;9.06;100.00
62708;BME280;48769;51.624;5.886;2023-02-03T06:04:56;102285.41;;;9.10;100.00
62708;BME280;48769;51.624;5.886;2023-02-03T06:07:21;102286.28;;;9.09;100.00
62708;BME280;48769;51.624;5.886;2023-02-03T06:09:46;102287.19;;;9.08;100.00
62708;BME280;48769;51.624;5.886;2023-02-03T06:12:13;102280.19;;;9.07;100.00
62708;BME280;48769;51.624;5.886;2023-02-03T06:14:39;102280.06;;;9.12;100.00
62708;BME280;48769;51.624;5.886;2023-02-03T06:17:04;102274.00;;;9.10;100.00
62708;BME280;48769;51.624;5.886;2023-02-03T06:19:29;102277.41;;;9.13;100.00
62708;BME280;48769;51.624;5.886;2023-02-03T06:21:54;102270.31;;;9.16;100.00
62708;BME280;48769;51.624;5.886;2023-02-03T06:24:19;102262.41;;;9.16;100.00
62708;BME280;48769;51.624;5.886;2023-02-03T06:26:45;102265.06;;;9.16;100.00
62708;BME280;48769;51.624;5.886;2023-02-03T06:29:10;102263.34;;;9.13;100.00
62708;BME280;48769;51.624;5.886;2023-02-03T06:31:35;102265.19;;;9.09;100.00
62708;BME280;48769;51.624;5.886;2023-02-03T06:34:00;102266.88;;;9.13;100.00
62708;BME280;48769;51.624;5.886;2023-02-03T06:36:26;102269.47;;;9.15;100.00
62708;BME280;48769;51.624;5.886;2023-02-03T06:38:51;102275.59;;;9.16;100.00
62708;BME280;48769;51.624;5.886;2023-02-03T06:41:16;102279.09;;;9.16;100.00
62708;BME280;48769;51.624;5.886;2023-02-03T06:43:42;102289.75;;;9.11;100.00
62708;BME280;48769;51.624;5.886;2023-02-03T06:46:07;102286.22;;;9.12;100.00
62708;BME280;48769;51.624;5.886;2023-02-03T06:48:32;102298.44;;;9.17;100.00
62708;BME280;48769;51.624;5.886;2023-02-03T06:50:57;102280.88;;;9.16;100.00
62708;BME280;48769;51.624;5.886;2023-02-03T06:53:22;102282.81;;;9.07;100.00
62708;BME280;48769;51.624;5.886;2023-02-03T06:55:48;102282.91;;;9.04;100.00
62708;BME280;48769;51.624;5.886;2023-02-03T06:58:13;102276.53;;;9.13;100.00
62708;BME280;48769;51.624;5.886;2023-02-03T07:00:38;102281.00;;;9.09;100.00
62708;BME280;48769;51.624;5.886;2023-02-03T07:03:03;102288.91;;;9.11;100.00
62708;BME280;48769;51.624;5.886;2023-02-03T07:05:29;102290.63;;;9.12;100.00
62708;BME280;48769;51.624;5.886;2023-02-03T07:07:54;102305.66;;;9.08;100.00
62708;BME280;48769;51.624;5.886;2023-02-03T07:10:19;102317.13;;;9.06;100.00
62708;BME280;48769;51.624;5.886;2023-02-03T07:12:44;102323.31;;;9.03;100.00
62708;BME280;48769;51.624;5.886;2023-02-03T07:15:10;102310.91;;;9.08;100.00
62708;BME280;48769;51.624;5.886;2023-02-03T07:17:36;102316.13;;;9.11;100.00
62708;BME280;48769;51.624;5.886;2023-02-03T07:20:01;102304.59;;;9.17;100.00
62708;BME280;48769;51.624;5.886;2023-02-03T07:22:26;102314.19;;;9.20;100.00
62708;BME280;48769;51.624;5.886;2023-02-03T07:24:51;102304.59;;;9.16;100.00
62708;BME280;48769;51.624;5.886;2023-02-03T07:27:17;102301.28;;;9.07;100.00
62708;BME280;48769;51.624;5.886;2023-02-03T07:29:43;102304.72;;;9.11;100.00
62708;BME280;48769;51.624;5.886;2023-02-03T07:32:08;102300.31;;;9.11;100.00
62708;BME280;48769;51.624;5.886;2023-02-03T07:34:33;102299.38;;;9.14;100.00
62708;BME280;48769;51.624;5.886;2023-02-03T07:36:58;102300.38;;;9.08;100.00
62708;BME280;48769;51.624;5.886;2023-02-03T07:39:24;102310.06;;;9.08;100.00
62708;BME280;48769;51.624;5.886;2023-02-03T07:41:49;102318.69;;;9.15;100.00
62708;BME280;48769;51.624;5.886;2023-02-03T07:44:14;102311.69;;;9.13;100.00
62708;BME280;48769;51.624;5.886;2023-02-03T07:46:39;102312.69;;;9.08;100.00
62708;BME280;48769;51.624;5.886;2023-02-03T07:49:09;102316.13;;;9.11;100.00
62708;BME280;48769;51.624;5.886;2023-02-03T07:51:34;102326.47;;;9.21;100.00
62708;BME280;48769;51.624;5.886;2023-02-03T07:54:00;102324.88;;;9.13;100.00
62708;BME280;48769;51.624;5.886;2023-02-03T07:56:25;102324.88;;;9.13;100.00
62708;BME280;48769;51.624;5.886;2023-02-03T07:58:53;102341.50;;;9.17;100.00
62708;BME280;48769;51.624;5.886;2023-02-03T08:01:18;102331.06;;;9.11;100.00
62708;BME280;48769;51.624;5.886;2023-02-03T08:03:44;102325.81;;;9.09;100.00
62708;BME280;48769;51.624;5.886;2023-02-03T08:06:09;102332.69;;;9.18;100.00
62708;BME280;48769;51.624;5.886;2023-02-03T08:08:34;102341.50;;;9.17;100.00
62708;BME280;48769;51.624;5.886;2023-02-03T08:10:59;102330.03;;;9.20;100.00
62708;BME280;48769;51.624;5.886;2023-02-03T08:13:25;102342.16;;;9.27;100.00
62708;BME280;48769;51.624;5.886;2023-02-03T08:15:50;102343.03;;;9.26;100.00
62708;BME280;48769;51.624;5.886;2023-02-03T08:18:15;102340.41;;;9.26;100.00
62708;BME280;48769;51.624;5.886;2023-02-03T08:20:40;102352.72;;;9.25;100.00
62708;BME280;48769;51.624;5.886;2023-02-03T08:23:06;102345.72;;;9.24;100.00
62708;BME280;48769;51.624;5.886;2023-02-03T08:25:31;102339.53;;;9.27;100.00
62708;BME280;48769;51.624;5.886;2023-02-03T08:27:56;102357.13;;;9.25;100.00
62708;BME280;48769;51.624;5.886;2023-02-03T08:30:22;102359.09;;;9.17;100.00
62708;BME280;48769;51.624;5.886;2023-02-03T08:32:47;102363.34;;;9.22;100.00
62708;BME280;48769;51.624;5.886;2023-02-03T08:35:13;102366.72;;;9.29;100.00
62708;BME280;48769;51.624;5.886;2023-02-03T08:37:38;102363.25;;;9.27;100.00
62708;BME280;48769;51.624;5.886;2023-02-03T08:40:04;102372.91;;;9.28;100.00
62708;BME280;48769;51.624;5.886;2023-02-03T08:42:29;102374.72;;;9.24;100.00
62708;BME280;48769;51.624;5.886;2023-02-03T08:44:55;102371.91;;;9.32;100.00
62708;BME280;48769;51.624;5.886;2023-02-03T08:47:20;102379.00;;;9.30;100.00
62708;BME280;48769;51.624;5.886;2023-02-03T08:49:45;102376.41;;;9.28;100.00
62708;BME280;48769;51.624;5.886;2023-02-03T08:52:11;102371.97;;;9.29;100.00
62708;BME280;48769;51.624;5.886;2023-02-03T08:54:36;102367.50;;;9.34;100.00
62708;BME280;48769;51.624;5.886;2023-02-03T08:57:02;102366.50;;;9.38;100.00
62708;BME280;48769;51.624;5.886;2023-02-03T08:59:27;102372.66;;;9.39;100.00
62708;BME280;48769;51.624;5.886;2023-02-03T09:01:54;102370.00;;;9.40;100.00
62708;BME280;48769;51.624;5.886;2023-02-03T09:04:20;102369.94;;;9.43;100.00
62708;BME280;48769;51.624;5.886;2023-02-03T09:06:49;102361.28;;;9.36;100.00
62708;BME280;48769;51.624;5.886;2023-02-03T09:09:14;102362.97;;;9.39;100.00
62708;BME280;48769;51.624;5.886;2023-02-03T09:11:40;102375.06;;;9.49;100.00
62708;BME280;48769;51.624;5.886;2023-02-03T09:14:06;102383.94;;;9.45;100.00
62708;BME280;48769;51.624;5.886;2023-02-03T09:16:31;102382.06;;;9.50;100.00
62708;BME280;48769;51.624;5.886;2023-02-03T09:18:56;102382.06;;;9.50;100.00
62708;BME280;48769;51.624;5.886;2023-02-03T09:21:21;102394.47;;;9.45;100.00
62708;BME280;48769;51.624;5.886;2023-02-03T09:23:48;102401.38;;;9.52;100.00
62708;BME280;48769;51.624;5.886;2023-02-03T09:26:14;102404.97;;;9.48;100.00
62708;BME280;48769;51.624;5.886;2023-02-03T09:28:39;102414.72;;;9.46;100.00
62708;BME280;48769;51.624;5.886;2023-02-03T09:31:05;102403.38;;;9.41;100.00
62708;BME280;48769;51.624;5.886;2023-02-03T09:33:31;102398.69;;;9.55;100.00
62708;BME280;48769;51.624;5.886;2023-02-03T09:35:57;102408.25;;;9.59;100.00
62708;BME280;48769;51.624;5.886;2023-02-03T09:38:22;102409.91;;;9.64;100.00
62708;BME280;48769;51.624;5.886;2023-02-03T09:43:36;102409.91;;;9.65;100.00
62708;BME280;48769;51.624;5.886;2023-02-03T09:46:11;102405.38;;;9.70;100.00
62708;BME280;48769;51.624;5.886;2023-02-03T09:48:39;102397.63;;;9.63;100.00
62708;BME280;48769;51.624;5.886;2023-02-03T09:51:13;102401.88;;;9.68;100.00
62708;BME280;48769;51.624;5.886;2023-02-03T09:53:41;102400.94;;;9.71;100.00
62708;BME280;48769;51.624;5.886;2023-02-03T09:56:17;102391.91;;;9.81;100.00
62708;BME280;48769;51.624;5.886;2023-02-03T09:58:46;102383.91;;;9.86;100.00
62708;BME280;48769;51.624;5.886;2023-02-03T10:01:11;102386.28;;;9.96;100.00
62708;BME280;48769;51.624;5.886;2023-02-03T10:03:55;102381.00;;;9.96;100.00
62708;BME280;48769;51.624;5.886;2023-02-03T10:14:10;102396.63;;;10.05;100.00
62708;BME280;48769;51.624;5.886;2023-02-03T10:22:14;102402.75;;;10.06;100.00
62708;BME280;48769;51.624;5.886;2023-02-03T10:24:43;102417.66;;;10.09;100.00
62708;BME280;48769;51.624;5.886;2023-02-03T10:27:17;102417.66;;;10.09;100.00
62708;BME280;48769;51.624;5.886;2023-02-03T10:29:43;102420.31;;;10.09;100.00
62708;BME280;48769;51.624;5.886;2023-02-03T10:32:11;102412.25;;;10.15;100.00
62708;BME280;48769;51.624;5.886;2023-02-03T10:34:37;102407.03;;;10.12;100.00
62708;BME280;48769;51.624;5.886;2023-02-03T10:41:59;102414.81;;;10.18;100.00
62708;BME280;48769;51.624;5.886;2023-02-03T10:44:47;102413.03;;;10.18;100.00
62708;BME280;48769;51.624;5.886;2023-02-03T10:47:19;102411.44;;;10.11;100.00
62708;BME280;48769;51.624;5.886;2023-02-03T10:49:50;102405.97;;;10.19;100.00
62708;BME280;48769;51.624;5.886;2023-02-03T10:52:27;102407.63;;;10.23;100.00
62708;BME280;48769;51.624;5.886;2023-02-03T10:54:52;102412.84;;;10.27;100.00
62708;BME280;48769;51.624;5.886;2023-02-03T10:57:18;102410.13;;;10.31;100.00
62708;BME280;48769;51.624;5.886;2023-02-03T10:59:44;102415.53;;;10.23;100.00
62708;BME280;48769;51.624;5.886;2023-02-03T11:02:19;102418.91;;;10.31;100.00
62708;BME280;48769;51.624;5.886;2023-02-03T11:04:45;102421.56;;;10.29;100.00
62708;BME280;48769;51.624;5.886;2023-02-03T11:07:22;102433.09;;;10.27;100.00
62708;BME280;48769;51.624;5.886;2023-02-03T11:09:47;102434.03;;;10.23;100.00
62708;BME280;48769;51.624;5.886;2023-02-03T11:14:39;102437.53;;;10.23;100.00
62708;BME280;48769;51.624;5.886;2023-02-03T11:17:08;102433.09;;;10.27;100.00
62708;BME280;48769;51.624;5.886;2023-02-03T11:19:36;102433.09;;;10.27;100.00
62708;BME280;48769;51.624;5.886;2023-02-03T11:22:02;102423.28;;;10.32;100.00
62708;BME280;48769;51.624;5.886;2023-02-03T11:24:36;102420.56;;;10.35;100.00
62708;BME280;48769;51.624;5.886;2023-02-03T11:27:03;102431.06;;;10.38;100.00
62708;BME280;48769;51.624;5.886;2023-02-03T11:29:31;102439.19;;;10.31;100.00
62708;BME280;48769;51.624;5.886;2023-02-03T11:32:02;102417.22;;;10.28;100.00
62708;BME280;48769;51.624;5.886;2023-02-03T11:34:36;102431.28;;;10.29;100.00
62708;BME280;48769;51.624;5.886;2023-02-03T11:39:46;102453.19;;;10.34;100.00
62708;BME280;48769;51.624;5.886;2023-02-03T11:42:21;102437.34;;;10.33;100.00
62708;BME280;48769;51.624;5.886;2023-02-03T11:44:47;102443.41;;;10.36;100.00
62708;BME280;48769;51.624;5.886;2023-02-03T11:47:12;102428.28;;;10.43;100.00
62708;BME280;48769;51.624;5.886;2023-02-03T11:54:35;102431.75;;;10.45;100.00
62708;BME280;48769;51.624;5.886;2023-02-03T11:57:26;102429.88;;;10.50;100.00
62708;BME280;48769;51.624;5.886;2023-02-03T12:02:37;102423.13;;;10.38;100.00
62708;BME280;48769;51.624;5.886;2023-02-03T12:05:12;102428.34;;;10.40;100.00
62708;BME280;48769;51.624;5.886;2023-02-03T12:07:46;102430.13;;;10.41;100.00
62708;BME280;48769;51.624;5.886;2023-02-03T12:13:04;102426.56;;;10.42;100.00
62708;BME280;48769;51.624;5.886;2023-02-03T12:30:37;102438.91;;;10.41;100.00
62708;BME280;48769;51.624;5.886;2023-02-03T12:33:07;102439.75;;;10.43;100.00
62708;BME280;48769;51.624;5.886;2023-02-03T12:35:37;102455.66;;;10.40;100.00
62708;BME280;48769;51.624;5.886;2023-02-03T12:40:42;102462.63;;;10.43;100.00
62708;BME280;48769;51.624;5.886;2023-02-03T12:43:20;102467.88;;;10.44;100.00
62708;BME280;48769;51.624;5.886;2023-02-03T12:45:50;102464.41;;;10.42;100.00
62708;BME280;48769;51.624;5.886;2023-02-03T12:48:18;102465.25;;;10.43;100.00
62708;BME280;48769;51.624;5.886;2023-02-03T12:50:58;102453.69;;;10.48;100.00
62708;BME280;48769;51.624;5.886;2023-02-03T12:53:26;102457.25;;;10.47;100.00
62708;BME280;48769;51.624;5.886;2023-02-03T12:56:07;102459.19;;;10.39;100.00
62708;BME280;48769;51.624;5.886;2023-02-03T13:01:07;102455.81;;;10.34;100.00
62708;BME280;48769;51.624;5.886;2023-02-03T13:06:25;102467.88;;;10.44;100.00
62708;BME280;48769;51.624;5.886;2023-02-03T13:11:41;102460.63;;;10.52;100.00
62708;BME280;48769;51.624;5.886;2023-02-03T13:14:10;102478.22;;;10.53;100.00
62708;BME280;48769;51.624;5.886;2023-02-03T13:16:38;102471.25;;;10.49;100.00
62708;BME280;48769;51.624;5.886;2023-02-03T13:19:14;102480.03;;;10.51;100.00
62708;BME280;48769;51.624;5.886;2023-02-03T13:21:41;102466.88;;;10.50;100.00
62708;BME280;48769;51.624;5.886;2023-02-03T13:24:06;102465.81;;;10.56;100.00
62708;BME280;48769;51.624;5.886;2023-02-03T13:31:34;102470.16;;;10.58;100.00
62708;BME280;48769;51.624;5.886;2023-02-03T13:34:19;102477.09;;;10.62;100.00
62708;BME280;48769;51.624;5.886;2023-02-03T13:40:03;102482.97;;;10.39;100.00
62708;BME280;48769;51.624;5.886;2023-02-03T13:44:40;102476.22;;;10.27;100.00
62708;BME280;48769;51.624;5.886;2023-02-03T13:47:12;102479.75;;;10.26;100.00
62708;BME280;48769;51.624;5.886;2023-02-03T13:49:40;102475.38;;;10.27;100.00
62708;BME280;48769;51.624;5.886;2023-02-03T13:55:19;102478.72;;;10.34;100.00
62708;BME280;48769;51.624;5.886;2023-02-03T13:57:49;102481.47;;;10.29;100.00
62708;BME280;48769;51.624;5.886;2023-02-03T14:02:59;102485.59;;;10.39;100.00
62708;BME280;48769;51.624;5.886;2023-02-03T14:05:37;102492.78;;;10.34;100.00
62708;BME280;48769;51.624;5.886;2023-02-03T14:10:47;102499.81;;;10.35;100.00
62708;BME280;48769;51.624;5.886;2023-02-03T14:13:32;102512.03;;;10.39;100.00
62708;BME280;48769;51.624;5.886;2023-02-03T14:16:43;102519.59;;;10.16;100.00
62708;BME280;48769;51.624;5.886;2023-02-03T14:18:43;102510.91;;;9.72;100.00
62708;BME280;48769;51.624;5.886;2023-02-03T14:21:20;102502.34;;;9.60;100.00
62708;BME280;48769;51.624;5.886;2023-02-03T14:23:47;102499.88;;;9.51;100.00
62708;BME280;48769;51.624;5.886;2023-02-03T14:26:14;102496.53;;;9.43;100.00
62708;BME280;48769;51.624;5.886;2023-02-03T14:28:41;102507.03;;;9.46;100.00
62708;BME280;48769;51.624;5.886;2023-02-03T14:31:12;102501.63;;;9.52;100.00
62708;BME280;48769;51.624;5.886;2023-02-03T14:38:56;102519.81;;;9.66;100.00